Latest Weather Observations for Nerriga

IDN60801

Issued at 10:32 pm EDT Thursday 23 February 2017 (issued every 30 minutes, with the page automatically refreshed every 10 minutes)

About weather observations | Map of weather stations | Latest weather observations for NSW | Other Formats
Station Details ID: 069128 Name: NERRIGA AWS Lat: -35.11 Lon: 150.08 Height: 622.0 m
Data from the previous 72 hours. | See also: Recent months at Nerriga
Date/Time
EDT
Temp
°C
App
Temp
°C
Dew
Point
°C
Rel
Hum
%
Delta-T
°C
Wind Press
QNH
hPa
Press
MSL
hPa
Rain since
9am
mm
Dir  Spd
km/h
Gust
km/h
Spd
kts
Gust
kts
23/10:30pm 24.7 24.2 13.9 51 6.5 N 9 13 5 7 1019.9 1017.4 0.0
23/10:00pm 24.6 24.7 14.4 53 6.2 NNE 7 11 4 6 1020.0 1017.5 0.0
23/09:30pm 25.1 25.1 15.1 53 6.2 NNE 9 15 5 8 1019.9 1017.4 0.0
23/09:00pm 25.8 24.7 15.2 52 6.6 NE 15 22 8 12 1019.6 1017.1 0.0
23/08:30pm 26.0 25.5 14.8 50 6.9 NE 11 26 6 14 1019.3 1016.8 0.0
23/08:00pm 26.4 25.2 13.9 46 7.6 ENE 13 20 7 11 1018.9 1016.3 0.0
23/07:30pm 27.4 25.7 13.7 43 8.3 ENE 15 24 8 13 1018.7 1016.1 0.0
23/07:00pm 28.7 26.4 14.1 40 9.0 ENE 19 28 10 15 1018.2 1015.7 0.0
23/06:30pm 30.0 27.6 13.7 37 10.0 ENE 19 26 10 14 1017.9 1015.4 0.0
23/06:00pm 33.4 32.8 12.4 28 12.8 WNW 7 20 4 11 1017.9 1015.4 0.0
23/05:30pm 32.8 28.7 6.2 19 14.7 W 17 30 9 16 1017.7 1015.2 0.0
23/05:00pm 33.1 30.4 5.6 18 15.1 W 9 15 5 8 1017.8 1015.3 0.0
23/04:30pm 34.1 30.4 4.7 16 16.0 W 13 22 7 12 1017.9 1015.4 0.0
23/04:00pm 34.7 30.2 6.1 17 15.9 NNW 19 30 10 16 1018.0 1015.5 0.0
23/03:30pm 33.6 30.4 6.8 19 15.0 NW 13 28 7 15 1018.3 1015.8 0.0
23/03:00pm 31.8 28.4 7.5 22 13.7 WNW 15 24 8 13 1018.7 1016.1 0.0
23/02:30pm 33.3 30.3 9.4 23 14.0 W 15 26 8 14 1018.9 1016.3 0.0
23/02:00pm 33.2 29.5 7.9 21 14.4 W 17 30 9 16 1019.2 1016.7 0.0
23/01:30pm 33.2 29.3 8.6 22 14.2 WSW 19 43 10 23 1019.5 1017.0 0.0
23/01:00pm 32.9 28.7 8.4 22 14.0 WNW 20 39 11 21 1019.7 1017.2 0.0
23/12:30pm 32.1 29.7 11.3 28 12.4 NW 15 28 8 15 1019.9 1017.4 0.0
23/12:00pm 30.0 28.7 12.4 34 10.6 W 11 22 6 12 1020.2 1017.7 0.0
23/11:30am 29.4 27.9 13.2 37 9.9 N 13 24 7 13 1020.6 1018.1 0.0
23/11:00am 26.6 26.6 13.7 45 7.8 N 6 9 3 5 1021.0 1018.5 0.0
23/10:30am 25.2 25.3 14.0 49 6.8 N 6 7 3 4 1021.1 1018.6 0.0
23/10:00am 23.3 23.8 14.0 56 5.6 N 4 6 2 3 1021.1 1018.6 0.0
23/09:30am 21.5 22.7 14.9 66 4.0 N 2 6 1 3 1021.2 1018.7 0.0
23/09:00am 19.6 19.8 14.2 71 3.2 N 6 7 3 4 1021.0 1018.5 0.0
23/08:30am 17.9 19.4 14.6 81 2.0 CALM 0 4 0 2 1020.8 1018.3 0.0
23/08:00am 16.8 18.0 14.8 88 1.2 N 2 6 1 3 1020.7 1018.2 0.0
23/07:30am 15.0 16.2 13.7 92 0.8 CALM 0 0 0 0 1020.0 1017.5 0.0
23/07:00am 14.1 15.1 13.1 94 0.6 CALM 0 2 0 1 1019.7 1017.2 0.0
23/06:30am 14.2 14.7 12.9 92 0.7 N 2 2 1 1 1019.5 1017.0 0.0
23/06:00am 14.6 15.7 13.5 93 0.6 CALM 0 0 0 0 1019.3 1016.8 0.0
23/05:30am 15.0 15.8 13.7 92 0.8 N 2 4 1 2 1019.1 1016.6 0.0
23/05:00am 14.9 15.7 13.6 92 0.7 N 2 6 1 3 1019.0 1016.4 0.0
23/04:30am 15.5 16.7 13.7 89 1.0 CALM 0 2 0 1 1019.1 1016.6 0.0
23/04:00am 15.9 16.1 14.1 89 1.0 N 6 7 3 4 1018.8 1016.2 0.0
23/03:30am 15.4 15.3 13.8 90 0.9 N 7 9 4 5 1018.9 1016.3 0.0
23/03:00am 15.5 15.9 13.7 89 1.0 N 4 6 2 3 1019.2 1016.7 0.0
23/02:30am 15.8 16.1 13.5 86 1.3 N 4 6 2 3 1019.4 1016.9 0.0
23/02:00am 17.0 17.9 14.1 83 1.7 N 2 2 1 1 1019.8 1017.3 0.0
23/01:30am 17.4 17.6 14.1 81 1.9 N 6 9 3 5 1019.9 1017.4 0.0
23/01:00am 17.8 17.4 14.1 79 2.2 N 9 17 5 9 1019.9 1017.4 0.0
23/12:30am 18.2 17.9 14.3 78 2.3 N 9 13 5 7 1020.0 1017.5 0.0
23/12:00am 18.5 17.8 14.2 76 2.5 N 11 19 6 10 1020.1 1017.6 0.0
 
Date/Time
EDT
Temp
°C
App
Temp
°C
Dew
Point
°C
Rel
Hum
%
Delta-T
°C
Wind Press
QNH
hPa
Press
MSL
hPa
Rain since
9am
mm
Dir  Spd
km/h
Gust
km/h
Spd
kts
Gust
kts
22/11:30pm 19.0 18.4 14.5 75 2.7 N 11 19 6 10 1020.0 1017.5 0.0
22/11:00pm 19.2 18.2 14.5 74 2.8 N 13 19 7 10 1020.0 1017.5 0.0
22/10:30pm 19.7 18.7 14.7 73 3.0 N 13 22 7 12 1019.9 1017.4 0.0
22/10:00pm 19.9 18.9 14.7 72 3.1 N 13 19 7 10 1019.7 1017.2 0.0
22/09:30pm 20.2 19.3 14.8 71 3.3 N 13 19 7 10 1019.6 1017.1 0.0
22/09:00pm 20.2 19.3 14.8 71 3.2 NNE 13 20 7 11 1019.1 1016.6 0.0
22/08:30pm 20.9 18.9 15.0 69 3.6 NNE 19 28 10 15 1018.5 1016.0 0.0
22/08:00pm 21.1 18.9 15.0 68 3.7 NE 20 28 11 15 1018.1 1015.6 0.0
22/07:30pm 22.0 19.8 14.9 64 4.3 ENE 20 32 11 17 1017.7 1015.2 0.0
22/07:00pm 23.4 21.4 14.9 59 5.2 NE 19 28 10 15 1017.5 1014.9 0.0
22/06:30pm 24.0 21.1 15.0 57 5.5 NE 24 33 13 18 1017.3 1014.7 0.0
22/06:00pm 25.3 22.0 15.0 53 6.3 ENE 26 37 14 20 1017.2 1014.6 0.0
22/05:30pm 26.6 22.8 14.7 48 7.3 NE 28 37 15 20 1017.1 1014.5 0.0
22/05:00pm 28.9 27.2 13.6 39 9.3 NE 15 30 8 16 1017.3 1014.7 0.0
22/04:30pm 28.8 25.8 11.8 35 10.1 NE 19 32 10 17 1017.4 1014.8 0.0
22/04:00pm 29.3 26.4 10.9 32 10.8 NNE 17 24 9 13 1017.7 1015.2 0.0
22/03:30pm 29.8 27.0 9.9 29 11.5 NNW 15 28 8 15 1018.1 1015.6 0.0
22/03:00pm 29.8 27.1 10.4 30 11.3 N 15 26 8 14 1018.7 1016.1 0.0
22/02:30pm 28.3 26.2 9.6 31 10.7 N 11 17 6 9 1019.1 1016.6 0.0
22/02:00pm 27.6 25.9 9.9 33 10.1 NNW 9 19 5 10 1019.5 1017.0 0.0
22/01:30pm 26.8 23.9 9.6 34 9.8 NNW 15 26 8 14 1020.0 1017.5 0.0
22/01:00pm 27.1 24.0 9.0 32 10.2 NNW 15 28 8 15 1020.4 1017.8 0.0
22/12:30pm 25.2 22.2 10.6 40 8.4 NNW 17 30 9 16 1020.8 1018.3 0.0
22/12:00pm 24.8 21.3 11.0 42 7.9 NNW 20 33 11 18 1021.2 1018.7 0.0
22/11:30am 24.2 21.1 12.2 47 7.0 NNW 20 26 11 14 1021.5 1019.0 0.0
22/11:00am 23.2 20.3 12.8 52 6.1 N 20 33 11 18 1021.9 1019.5 0.0
22/10:30am 21.4 18.5 12.8 58 5.0 N 20 32 11 17 1022.4 1019.9 0.0
22/10:00am 21.4 19.4 13.8 62 4.5 N 17 28 9 15 1022.6 1020.1 0.0
22/09:30am 19.7 17.9 13.4 67 3.7 N 15 24 8 13 1022.6 1020.1 0.0
22/09:00am 18.8 17.5 13.6 72 3.0 N 13 17 7 9 1022.6 1020.1 0.0
22/08:30am 17.5 16.1 13.4 77 2.4 N 13 19 7 10 1022.5 1020.0 0.0
22/08:00am 16.2 15.4 12.9 81 1.9 N 9 13 5 7 1022.4 1019.9 0.0
22/07:30am 15.5 14.7 12.8 84 1.5 NNE 9 13 5 7 1022.1 1019.6 0.0
22/07:00am 14.6 13.7 12.5 87 1.2 NNE 9 13 5 7 1021.7 1019.2 0.0
22/06:30am 14.5 13.5 12.4 87 1.2 NNE 9 15 5 8 1021.4 1018.9 0.0
22/06:00am 14.6 13.7 12.5 87 1.2 NNE 9 13 5 7 1021.1 1018.6 0.0
22/05:30am 15.0 13.0 12.7 86 1.3 NNE 15 20 8 11 1020.7 1018.2 0.0
22/05:00am 14.8 13.1 12.3 85 1.4 NNE 13 19 7 10 1020.9 1018.4 0.0
22/04:30am 15.0 13.3 12.5 85 1.4 NNE 13 17 7 9 1021.0 1018.5 0.0
22/04:00am 15.1 13.4 12.6 85 1.4 NNE 13 17 7 9 1021.1 1018.6 0.0
22/03:30am 15.6 13.7 13.1 85 1.4 NE 15 22 8 12 1021.2 1018.7 0.0
22/03:00am 15.3 14.2 13.2 87 1.2 E 11 19 6 10 1021.5 1019.0 0.0
22/02:30am 14.8 14.0 13.0 89 1.0 E 9 13 5 7 1021.6 1019.1 0.0
22/02:00am 14.8 14.0 13.0 89 1.0 E 9 11 5 6 1021.9 1019.5 0.0
22/01:30am 14.5 13.6 12.7 89 1.0 E 9 13 5 7 1021.9 1019.5 0.0
22/01:00am 14.9 13.9 12.4 85 1.4 E 9 9 5 5 1022.5 1020.0 0.0
22/12:30am 14.9 14.3 12.2 84 1.5 E 7 11 4 6 1022.7 1020.2 0.0
22/12:00am 15.5 15.0 12.1 80 1.9 E 6 7 3 4 1022.9 1020.4 0.0
 
Date/Time
EDT
Temp
°C
App
Temp
°C
Dew
Point
°C
Rel
Hum
%
Delta-T
°C
Wind Press
QNH
hPa
Press
MSL
hPa
Rain since
9am
mm
Dir  Spd
km/h
Gust
km/h
Spd
kts
Gust
kts
21/11:30pm 16.3 15.0 12.5 78 2.2 E 11 15 6 8 1023.0 1020.5 0.0
21/11:00pm 16.3 14.6 12.3 77 2.3 E 13 17 7 9 1023.1 1020.6 0.0
21/10:30pm 15.6 15.0 12.4 81 1.8 E 7 11 4 6 1023.2 1020.7 0.0
21/10:00pm 15.8 16.0 13.1 84 1.5 E 4 6 2 3 1023.3 1020.9 0.0
21/09:30pm 15.9 15.9 13.6 86 1.3 E 6 9 3 5 1023.3 1020.9 0.0
21/09:00pm 15.6 15.0 13.6 88 1.2 E 9 13 5 7 1022.9 1020.4 0.0
21/08:30pm 15.5 15.2 13.2 86 1.3 E 7 9 4 5 1022.5 1020.0 0.0
21/08:00pm 16.0 13.7 13.1 83 1.7 ESE 17 24 9 13 1022.1 1019.6 0.0
21/07:30pm 16.6 13.8 13.3 81 1.9 E 20 28 11 15 1021.7 1019.2 0.0
21/07:00pm 17.0 13.7 12.9 77 2.3 E 22 30 12 16 1021.1 1018.6 0.0
21/06:30pm 17.9 13.5 12.8 72 2.9 E 28 37 15 20 1020.6 1018.1 0.0
21/06:00pm 18.5 14.3 12.5 68 3.4 E 26 35 14 19 1020.4 1017.8 0.0
21/05:30pm 19.4 15.2 12.4 64 4.0 ESE 26 35 14 19 1020.4 1017.8 0.0
21/05:00pm 19.9 15.9 11.9 60 4.6 E 24 33 13 18 1020.2 1017.7 0.0
21/04:30pm 20.4 15.3 11.9 58 4.9 E 30 39 16 21 1020.1 1017.6 0.0
21/04:00pm 20.1 15.5 11.1 56 5.1 E 26 39 14 21 1020.0 1017.5 0.0
21/03:30pm 21.8 17.7 11.5 52 5.9 ESE 24 35 13 19 1020.0 1017.5 0.0
21/03:00pm 21.9 17.6 10.7 49 6.3 E 24 32 13 17 1020.1 1017.6 0.0
21/02:30pm 23.0 19.9 9.0 41 7.7 ENE 15 24 8 13 1020.5 1018.0 0.0
21/02:00pm 23.7 20.7 9.3 40 8.0 NE 15 30 8 16 1020.7 1018.2 0.0
21/01:30pm 23.1 20.6 8.4 39 8.0 NE 11 20 6 11 1020.9 1018.4 0.0
21/01:00pm 20.8 17.0 6.0 38 7.6 ENE 15 22 8 12 1021.2 1018.7 0.0
21/12:30pm 22.3 19.5 8.4 41 7.6 NE 13 22 7 12 1021.4 1018.9 0.0
21/12:00pm 19.6 16.6 7.7 46 6.3 ENE 13 24 7 13 1021.6 1019.1 0.0
21/11:30am 19.1 16.3 6.9 45 6.3 E 11 19 6 10 1021.9 1019.5 0.0
21/11:00am 19.6 16.7 8.3 48 6.0 ENE 13 24 7 13 1022.1 1019.6 0.0
21/10:30am 18.6 16.5 8.3 51 5.5 WSW 9 19 5 10 1022.3 1019.8 0.0
21/10:00am 18.6 16.2 8.6 52 5.3 WSW 11 17 6 9 1022.3 1019.8 0.0
21/09:30am 15.3 14.0 6.1 54 4.6 W 2 4 1 2 1022.1 1019.6 0.0
21/09:00am 13.3 11.8 5.2 58 3.9 W 2 4 1 2 1021.8 1019.4 0.0
21/08:30am 11.0 9.4 4.5 64 3.0 W 2 2 1 1 1021.5 1019.0 0.0
21/08:00am 8.8 7.6 4.4 74 2.0 CALM 0 0 0 0 1020.9 1018.4 0.0
21/07:30am 7.3 6.1 4.8 84 1.1 CALM 0 0 0 0 1020.7 1018.2 0.0
21/07:00am 5.4 3.3 3.9 90 0.7 W 4 6 2 3 1020.2 1017.7 0.0
21/06:30am 5.5 3.4 4.0 90 0.7 W 4 4 2 2 1019.7 1017.2 0.0
21/06:00am 5.3 2.8 3.8 90 0.7 W 6 6 3 3 1019.6 1017.1 0.0
21/05:30am 5.3 2.8 3.5 88 0.8 W 6 6 3 3 1019.3 1016.8 0.0
21/05:00am 5.4 3.6 3.6 88 0.8 W 2 4 1 2 1019.1 1016.6 0.0
21/04:30am 6.6 5.4 4.8 88 0.8 CALM 0 0 0 0 1018.9 1016.3 0.0
21/04:00am 7.1 6.0 5.3 88 0.8 CALM 0 0 0 0 1018.8 1016.2 0.0
21/03:30am 6.2 4.4 3.4 82 1.2 W 2 4 1 2 1018.8 1016.2 0.0
21/03:00am 7.0 5.3 3.8 80 1.4 W 2 4 1 2 1018.9 1016.3 0.0
21/02:30am 8.2 6.1 3.9 74 1.9 W 4 4 2 2 1019.0 1016.4 0.0
21/02:00am 7.9 5.4 3.6 74 1.9 W 6 7 3 4 1018.9 1016.3 0.0
21/01:30am 8.3 5.5 3.2 70 2.3 W 7 9 4 5 1018.9 1016.3 0.0
21/01:00am 9.1 6.2 2.4 63 2.9 W 7 9 4 5 1019.1 1016.6 0.0
21/12:30am 10.5 8.2 2.6 58 3.5 W 4 7 2 4 1019.0 1016.4 0.0
21/12:00am 10.4 8.5 2.7 59 3.4 W 2 6 1 3 1019.0 1016.4 0.0
 
Date/Time
EDT
Temp
°C
App
Temp
°C
Dew
Point
°C
Rel
Hum
%
Delta-T
°C
Wind Press
QNH
hPa
Press
MSL
hPa
Rain since
9am
mm
Dir  Spd
km/h
Gust
km/h
Spd
kts
Gust
kts
20/11:30pm 11.4 8.1 2.4 54 4.0 W 9 11 5 6 1018.5 1016.0 0.0
20/11:00pm 11.7 9.3 1.9 51 4.3 W 4 6 2 3 1018.5 1016.0 0.0

Other Formats:

Comma delimited format used in spreadsheet applications
http://www.bom.gov.au/fwo/IDN60801/IDN60801.94943.axf

JavaScript Object Notation format (JSON) in row-major order
http://www.bom.gov.au/fwo/IDN60801/IDN60801.94943.json